| time (UTC) | temp F | wind direction | speed knots | gust knots | rain 1hr in | rain 24hr in | rain mn in | humidity % | barometer mb |
| 20260507201652 | 69 | 348 | 4.3 | 7.0 | 0.00 | 0.00 | 0.00 | 45 | 1013.8 |
| 20260507200103 | 69 | 144 | 7.8 | 11.3 | 0.00 | 0.00 | 0.00 | 47 | 1014.1 |
| 20260507191336 | 67 | 162 | 8.7 | 12.2 | 0.00 | 0.00 | 0.00 | 46 | 1014.9 |
| 20260507185747 | 66 | 316 | 5.2 | 7.8 | 0.00 | 0.00 | 0.00 | 49 | 1014.9 |
| 20260507184158 | 66 | 224 | 6.1 | 6.1 | 0.00 | 0.00 | 0.00 | 49 | 1015.2 |
| 20260507182610 | 66 | 200 | 7.0 | 10.4 | 0.00 | 0.00 | 0.00 | 49 | 1015.2 |
| 20260507181527 | 66 | 296 | 0.9 | 8.7 | 0.00 | 0.00 | 0.00 | 50 | 1015.6 |
| 20260507181020 | 66 | 296 | 0.9 | 8.7 | 0.00 | 0.00 | 0.00 | 50 | 1015.6 |
| 20260507175512 | 65 | 219 | 5.2 | 7.0 | 0.00 | 0.00 | 0.00 | 51 | 1016.0 |
| 20260507175431 | 65 | 219 | 5.2 | 7.0 | 0.00 | 0.00 | 0.00 | 51 | 1016.0 |
| 20260507173842 | 66 | 213 | 1.7 | 7.8 | 0.00 | 0.00 | 0.00 | 51 | 1016.4 |
| 20260507172828 | 64 | 291 | 4.3 | 7.0 | 0.00 | 0.00 | 0.00 | 51 | 1016.6 |
| 20260507172253 | 64 | 291 | 4.3 | 7.0 | 0.00 | 0.00 | 0.00 | 51 | 1016.6 |
| 20260507170705 | 64 | 269 | 8.7 | 10.4 | 0.00 | 0.00 | 0.00 | 52 | 1016.8 |
| 20260507165115 | 63 | 255 | 6.1 | 9.6 | 0.00 | 0.00 | 0.00 | 53 | 1017.0 |
| 20260507163526 | 63 | 242 | 7.8 | 7.8 | 0.00 | 0.00 | 0.00 | 54 | 1017.3 |
| 20260507161937 | 62 | 215 | 1.7 | 10.4 | 0.00 | 0.00 | 0.00 | 53 | 1017.4 |
| 20260507160348 | 63 | 300 | 4.3 | 13.9 | 0.00 | 0.00 | 0.00 | 55 | 1017.5 |
| 20260507154759 | 62 | 241 | 0.9 | 10.4 | 0.00 | 0.00 | 0.00 | 55 | 1017.6 |
| 20260507153211 | 61 | 186 | 1.7 | 7.0 | 0.00 | 0.00 | 0.00 | 59 | 1017.8 |
| 20260507151621 | 60 | 347 | 1.7 | 8.7 | 0.00 | 0.00 | 0.00 | 59 | 1017.8 |
| 20260507150032 | 59 | 146 | 1.7 | 4.3 | 0.00 | 0.00 | 0.00 | 61 | 1018.1 |
| 20260507144443 | 58 | 252 | 0.9 | 11.3 | 0.00 | 0.00 | 0.00 | 62 | 1018.2 |
| 20260507142854 | 57 | 197 | 2.6 | 5.2 | 0.00 | 0.00 | 0.00 | 64 | 1018.4 |
| 20260507135717 | 54 | 229 | 6.1 | 7.8 | 0.00 | 0.00 | 0.00 | 70 | 1018.5 |
| 20260507132538 | 51 | 238 | 2.6 | 2.6 | 0.00 | 0.00 | 0.00 | 75 | 1018.4 |
| 20260507130951 | 50 | 213 | 3.5 | 3.5 | 0.00 | 0.00 | 0.00 | 77 | 1018.6 |
| 20260507125400 | 49 | 248 | 0.9 | 5.2 | 0.00 | 0.00 | 0.00 | 79 | 1018.7 |
| 20260507123812 | 47 | 257 | 1.7 | 3.5 | 0.00 | 0.00 | 0.00 | 81 | 1018.8 |
| 20260507123206 | 45 | 242 | 0.9 | 6.1 | 0.00 | 0.00 | 0.00 | 83 | 1018.8 |
| 20260507122222 | 45 | 242 | 0.9 | 6.1 | 0.00 | 0.00 | 0.00 | 83 | 1018.8 |
| 20260507120635 | 44 | 221 | 1.7 | 4.3 | 0.00 | 0.00 | 0.00 | 84 | 1018.7 |
| 20260507115044 | 43 | 226 | 0.9 | 2.6 | 0.00 | 0.00 | 0.00 | 85 | 1018.7 |
| 20260507111906 | 41 | 233 | 0.9 | 3.5 | 0.00 | 0.00 | 0.00 | 87 | 1018.6 |
| 20260507110317 | 41 | 360 | 0.0 | 0.9 | 0.00 | 0.00 | 0.00 | 88 | 1018.5 |
| 20260507104728 | 41 | 360 | 0.0 | 0.0 | 0.00 | 0.00 | 0.00 | 87 | 1018.5 |
| 20260507101550 | 41 | 360 | 0.0 | 0.0 | 0.00 | 0.00 | 0.00 | 87 | 1018.7 |
| 20260507100001 | 41 | 360 | 0.0 | 0.0 | 0.00 | 0.00 | 0.00 | 87 | 1018.7 |
| 20260507094414 | 41 | 360 | 0.0 | 0.0 | 0.00 | 0.00 | 0.00 | 88 | 1018.7 |
| 20260507092823 | 41 | 360 | 0.0 | 0.0 | 0.00 | 0.00 | 0.00 | 87 | 1019.0 |
| 20260507091234 | 41 | 360 | 0.0 | 0.0 | 0.00 | 0.00 | 0.00 | 87 | 1018.9 |
| 20260507085646 | 42 | 360 | 0.0 | 0.0 | 0.00 | 0.00 | 0.00 | 85 | 1019.0 |
| 20260507084059 | 42 | 360 | 0.0 | 0.0 | 0.00 | 0.00 | 0.00 | 85 | 1019.2 |
| 20260507082507 | 42 | 360 | 0.0 | 0.0 | 0.00 | 0.00 | 0.00 | 84 | 1019.2 |
| 20260507080918 | 43 | 360 | 0.0 | 0.0 | 0.00 | 0.00 | 0.00 | 84 | 1019.2 |
| 20260507075330 | 43 | 360 | 0.0 | 0.0 | 0.00 | 0.00 | 0.00 | 83 | 1019.2 |
| 20260507073743 | 44 | 360 | 0.0 | 0.0 | 0.00 | 0.00 | 0.00 | 82 | 1019.2 |
| 20260507072152 | 44 | 360 | 0.0 | 0.0 | 0.00 | 0.00 | 0.00 | 81 | 1019.3 |
| 20260507065013 | 45 | 360 | 0.0 | 0.0 | 0.00 | 0.00 | 0.00 | 77 | 1019.6 |
| 20260507063424 | 46 | 360 | 0.0 | 0.0 | 0.00 | 0.00 | 0.00 | 75 | 1019.8 |
| 20260507061837 | 47 | 360 | 0.0 | 0.0 | 0.00 | 0.00 | 0.00 | 73 | 1019.8 |
| 20260507060247 | 47 | 360 | 0.0 | 0.0 | 0.00 | 0.00 | 0.00 | 72 | 1020.0 |
| 20260507053110 | 47 | 360 | 0.0 | 0.0 | 0.00 | 0.00 | 0.00 | 73 | 1019.9 |
| 20260507051521 | 46 | 360 | 0.0 | 0.0 | 0.00 | 0.02 | 0.00 | 76 | 1019.8 |
| 20260507045930 | 44 | 360 | 0.0 | 0.0 | 0.00 | 0.03 | 0.02 | 82 | 1019.8 |
| 20260507044343 | 44 | 360 | 0.0 | 0.0 | 0.00 | 0.03 | 0.02 | 85 | 1019.9 |
| 20260507042752 | 44 | 360 | 0.0 | 0.0 | 0.00 | 0.03 | 0.02 | 86 | 1019.9 |
| 20260507041203 | 44 | 360 | 0.0 | 0.0 | 0.00 | 0.03 | 0.02 | 84 | 1019.8 |
| 20260507035614 | 44 | 360 | 0.0 | 0.0 | 0.00 | 0.03 | 0.02 | 84 | 1020.1 |
| 20260507034027 | 44 | 360 | 0.0 | 0.0 | 0.00 | 0.03 | 0.02 | 81 | 1020.1 |
| 20260507032438 | 45 | 360 | 0.0 | 0.0 | 0.00 | 0.03 | 0.02 | 81 | 1020.1 |
| 20260507030847 | 45 | 360 | 0.0 | 0.0 | 0.00 | 0.03 | 0.02 | 79 | 1020.1 |
| 20260507025258 | 46 | 360 | 0.0 | 0.0 | 0.00 | 0.03 | 0.02 | 76 | 1020.0 |
| 20260507023710 | 47 | 360 | 0.0 | 0.0 | 0.00 | 0.03 | 0.02 | 74 | 1019.8 |
| 20260507022121 | 49 | 360 | 0.0 | 0.0 | 0.00 | 0.03 | 0.02 | 70 | 1019.6 |
| 20260507020531 | 50 | 360 | 0.0 | 0.0 | 0.00 | 0.03 | 0.02 | 66 | 1019.5 |
| 20260507014942 | 52 | 360 | 0.0 | 0.0 | 0.00 | 0.03 | 0.02 | 61 | 1019.4 |
| 20260507013354 | 54 | 360 | 0.0 | 0.0 | 0.00 | 0.03 | 0.02 | 54 | 1019.4 |
| 20260507011804 | 56 | 360 | 0.0 | 0.0 | 0.00 | 0.03 | 0.02 | 47 | 1019.3 |
| 20260507010216 | 57 | 360 | 0.0 | 0.0 | 0.00 | 0.03 | 0.02 | 43 | 1019.2 |
| 20260507004627 | 58 | 360 | 0.0 | 0.0 | 0.00 | 0.03 | 0.02 | 39 | 1019.1 |
| 20260507003122 | 60 | 360 | 0.0 | 0.0 | 0.00 | 0.03 | 0.02 | 36 | 1019.2 |
| 20260507003040 | 60 | 360 | 0.0 | 0.0 | 0.00 | 0.03 | 0.02 | 36 | 1019.2 |
| 20260507001844 | 61 | 329 | 1.7 | 4.3 | 0.00 | 0.03 | 0.02 | 33 | 1019.2 |
| 20260507001448 | 61 | 329 | 1.7 | 4.3 | 0.00 | 0.03 | 0.02 | 33 | 1019.2 |
| 20260506235859 | 62 | 328 | 0.9 | 0.9 | 0.00 | 0.03 | 0.02 | 34 | 1019.2 |
| 20260506234311 | 62 | 360 | 0.0 | 3.5 | 0.00 | 0.03 | 0.02 | 34 | 1019.4 |
| 20260506232724 | 62 | 328 | 0.9 | 2.6 | 0.00 | 0.03 | 0.02 | 33 | 1019.3 |
| 20260506231132 | 63 | 283 | 5.2 | 5.2 | 0.00 | 0.03 | 0.02 | 31 | 1019.3 |
| 20260506225544 | 63 | 347 | 0.9 | 6.1 | 0.00 | 0.03 | 0.02 | 32 | 1019.4 |
| 20260506223954 | 62 | 338 | 0.9 | 1.7 | 0.00 | 0.03 | 0.02 | 33 | 1019.4 |
| 20260506222406 | 62 | 360 | 0.0 | 0.0 | 0.00 | 0.03 | 0.02 | 32 | 1019.3 |
| 20260506220818 | 62 | 360 | 0.0 | 4.3 | 0.00 | 0.03 | 0.02 | 31 | 1019.6 |
| 20260506213638 | 63 | 350 | 3.5 | 6.1 | 0.00 | 0.03 | 0.02 | 32 | 1019.7 |
| 20260506213416 | 62 | 263 | 3.5 | 3.5 | 0.00 | 0.03 | 0.02 | 34 | 1019.8 |
| 20260506212049 | 62 | 263 | 3.5 | 3.5 | 0.00 | 0.03 | 0.02 | 34 | 1019.8 |
| 20260506210501 | 63 | 334 | 1.7 | 3.5 | 0.00 | 0.03 | 0.02 | 34 | 1020.2 |
| 20260506204911 | 61 | 220 | 0.9 | 11.3 | 0.00 | 0.03 | 0.02 | 34 | 1020.4 |
| 20260506203323 | 61 | 360 | 0.0 | 1.7 | 0.00 | 0.03 | 0.02 | 35 | 1020.6 |